Latest Weather Observations for Groote Eylandt Airport

IDD60801

Issued at 11:11 pm CST Sunday 17 February 2019 (issued every 10 minutes, with the page automatically refreshed every 10 minutes)

About weather observations | Map of weather stations | Latest weather observations for NT | Other Formats
Station Details ID: 014518 Name: GROOTE EYLANDT AIRPORT Lat: -13.97 Lon: 136.46 Height: 13.7 m
Data from the previous 72 hours. | See also: Recent months at Groote Eylandt Airport
Date/Time
CST
Temp
°C
App
Temp
°C
Dew
Point
°C
Rel
Hum
%
Delta-T
°C
Wind Press
QNH
hPa
Press
MSL
hPa
Rain since
9am
mm
Dir  Spd
km/h
Gust
km/h
Spd
kts
Gust
kts
17/11:00pm 27.2 31.3 23.9 82 2.3 E 9 11 5 6 1010.2 1010.1 0.0
17/10:30pm 27.9 32.1 23.5 77 3.0 NE 7 11 4 6 1009.7 1009.6 0.0
17/10:00pm 28.1 32.3 23.5 76 3.2 NNE 7 9 4 5 1009.5 1009.4 0.0
17/09:30pm 27.8 31.1 23.2 76 3.1 ENE 11 13 6 7 1009.2 1009.1 0.0
17/09:00pm 27.4 31.7 24.3 83 2.1 E 9 9 5 5 1009.2 1009.1 0.0
17/08:30pm 28.0 33.7 23.8 78 2.9 CALM 0 4 0 2 1008.8 1008.7 0.0
17/08:00pm 29.0 33.8 24.1 75 3.4 ENE 6 9 3 5 1008.5 1008.4 0.0
17/07:30pm 30.3 33.7 22.7 64 5.2 NE 9 11 5 6 1008.2 1008.1 0.0
17/07:00pm 31.3 35.0 22.6 60 5.9 NE 7 11 4 6 1007.7 1007.6 0.0
17/06:30pm 32.4 35.7 22.5 56 6.8 N 9 13 5 7 1007.6 1007.5 0.0
17/06:00pm 33.3 35.5 21.1 48 8.2 NE 11 13 6 7 1007.1 1007.0 0.0
17/05:30pm 33.8 35.9 20.2 44 9.1 NNE 9 11 5 6 1006.9 1006.8 0.0
17/05:00pm 33.8 35.7 20.6 46 8.8 NNE 11 15 6 8 1007.0 1006.9 0.0
17/04:30pm 33.9 35.8 20.6 45 8.9 NNE 11 15 6 8 1007.1 1007.0 0.0
17/04:00pm 34.2 35.4 20.6 45 9.1 NNW 15 20 8 11 1007.4 1007.3 0.0
17/03:30pm 34.5 35.8 20.8 44 9.2 NW 15 20 8 11 1007.8 1007.7 0.0
17/03:00pm 33.8 36.2 21.6 49 8.3 NNW 11 17 6 9 1008.1 1008.0 0.0
17/02:30pm 33.5 34.8 21.6 49 8.1 NW 17 24 9 13 1008.5 1008.4 0.0
17/02:00pm 33.6 35.6 23.6 56 7.0 NW 19 26 10 14 1009.1 1009.0 0.0
17/01:30pm 33.2 35.3 23.8 57 6.6 NW 19 26 10 14 1009.8 1009.7 0.0
17/01:00pm 32.5 34.7 23.2 58 6.4 NW 17 22 9 12 1010.3 1010.2 0.0
17/12:30pm 32.6 35.3 24.1 61 5.9 WNW 17 24 9 13 1011.0 1010.9 0.0
17/12:00pm 32.8 35.8 24.0 60 6.1 NW 15 20 8 11 1011.6 1011.5 0.0
17/11:30am 31.8 33.5 23.1 60 6.0 NW 19 28 10 15 1012.0 1011.9 0.0
17/11:00am 31.3 33.8 24.4 66 4.8 NW 19 33 10 18 1012.1 1012.0 0.0
17/10:30am 31.3 34.0 24.7 68 4.6 NW 19 24 10 13 1012.3 1012.2 0.0
17/10:00am 30.5 32.7 24.2 69 4.4 NW 20 30 11 16 1012.5 1012.4 0.0
17/09:30am 30.5 33.4 24.4 70 4.3 NNW 17 24 9 13 1012.2 1012.1 0.0
17/09:00am 30.0 33.1 24.2 71 4.0 NNW 15 22 8 12 1012.2 1012.1 4.6
17/08:30am 29.1 33.1 25.1 79 2.8 N 13 17 7 9 1012.2 1012.1 4.6
17/08:00am 28.9 34.5 25.7 83 2.3 NNE 7 13 4 7 1011.7 1011.6 4.6
17/07:30am 27.0 32.5 25.6 92 1.0 E 7 9 4 5 1011.2 1011.1 4.6
17/07:00am 25.1 30.0 24.6 97 0.3 E 7 9 4 5 1010.7 1010.6 4.6
17/06:30am 24.3 29.3 23.8 97 0.3 E 4 9 2 5 1010.1 1010.0 4.6
17/06:00am 24.2 28.7 23.7 97 0.3 E 6 7 3 4 1009.8 1009.7 4.6
17/05:30am 24.1 29.2 23.4 96 0.5 E 2 9 1 5 1009.2 1009.1 4.6
17/05:00am 24.3 28.8 23.6 96 0.5 ENE 6 7 3 4 1008.9 1008.8 4.6
17/04:30am 24.7 30.1 23.8 95 0.6 NE 2 6 1 3 1008.8 1008.7 4.6
17/04:00am 25.1 30.0 24.4 96 0.5 NNE 6 7 3 4 1008.7 1008.6 4.6
17/03:30am 24.9 30.4 24.0 95 0.6 NE 2 6 1 3 1008.9 1008.8 4.6
17/03:00am 25.4 30.5 24.7 96 0.5 NE 6 7 3 4 1008.9 1008.8 4.6
17/02:30am 25.1 29.9 24.4 96 0.5 E 7 9 4 5 1009.2 1009.1 4.6
17/02:00am 24.9 29.6 24.0 95 0.6 E 6 7 3 4 1009.4 1009.3 4.6
17/01:30am 24.9 30.7 24.0 95 0.6 CALM 0 0 0 0 1009.7 1009.6 4.6
17/01:00am 25.8 31.4 24.8 94 0.7 ENE 4 6 2 3 1009.9 1009.8 4.6
17/12:30am 25.3 30.2 24.3 94 0.7 E 6 7 3 4 1010.3 1010.2 4.6
17/12:00am 25.9 32.0 24.5 92 1.0 CALM 0 0 0 0 1010.8 1010.7 4.6
 
Date/Time
CST
Temp
°C
App
Temp
°C
Dew
Point
°C
Rel
Hum
%
Delta-T
°C
Wind Press
QNH
hPa
Press
MSL
hPa
Rain since
9am
mm
Dir  Spd
km/h
Gust
km/h
Spd
kts
Gust
kts
16/11:30pm 26.0 32.2 24.6 92 1.0 CALM 0 7 0 4 1011.1 1011.0 4.6
16/11:00pm 26.1 31.9 24.5 91 1.1 E 2 7 1 4 1011.4 1011.3 4.6
16/10:30pm 26.4 31.7 25.0 92 1.0 E 6 7 3 4 1011.2 1011.1 4.6
16/10:00pm 26.6 31.9 24.4 88 1.5 NE 4 6 2 3 1011.0 1010.9 4.6
16/09:30pm 26.7 31.8 24.9 90 1.3 E 7 9 4 5 1010.6 1010.5 4.6
16/09:00pm 27.2 33.0 24.5 85 1.9 ESE 2 6 1 3 1010.6 1010.5 4.6
16/08:30pm 28.4 33.2 24.2 78 2.9 NE 6 7 3 4 1010.2 1010.1 4.6
16/08:00pm 28.8 32.9 23.9 75 3.4 ENE 9 11 5 6 1010.0 1009.9 4.6
16/07:30pm 29.6 34.4 24.5 74 3.6 NE 7 11 4 6 1009.6 1009.5 4.6
16/07:00pm 30.2 34.6 24.4 71 4.0 ENE 9 11 5 6 1009.2 1009.1 4.6
16/06:30pm 31.1 35.6 24.0 66 4.9 ENE 7 11 4 6 1008.6 1008.5 4.6
16/06:00pm 31.8 35.5 23.9 63 5.5 ENE 11 13 6 7 1008.3 1008.2 4.6
16/05:30pm 32.0 35.9 24.3 63 5.4 NNE 11 15 6 8 1007.8 1007.7 4.6
16/05:00pm 31.7 36.8 24.6 66 5.0 ENE 6 9 3 5 1007.7 1007.6 4.6
16/04:30pm 30.6 36.0 24.5 70 4.3 SSW 4 9 2 5 1008.1 1008.0 4.6
16/04:00pm 27.4 32.1 24.3 83 2.1 SSE 7 13 4 7 1008.4 1008.3 4.6
16/03:30pm 26.0 30.0 23.7 87 1.6 ENE 9 11 5 6 1008.8 1008.7 4.6
16/03:00pm 25.0 26.9 22.7 87 1.6 NE 17 28 9 15 1010.1 1010.0 4.6
16/02:30pm 25.1 24.9 22.8 87 1.6 ESE 28 52 15 28 1010.4 1010.3 2.2
16/02:00pm 29.5 30.0 20.1 57 6.2 WSW 17 35 9 19 1010.3 1010.2 0.0
16/01:30pm 34.4 37.0 24.6 56 6.9 NW 19 26 10 14 1009.5 1009.4 0.0
16/01:00pm 34.0 37.7 25.1 59 6.3 NW 15 20 8 11 1010.2 1010.1 0.0
16/12:30pm 32.8 36.3 24.8 62 5.6 NW 15 20 8 11 1010.9 1010.8 0.0
16/12:00pm 32.9 37.4 25.2 64 5.5 W 11 17 6 9 1011.3 1011.2 0.0
16/11:30am 32.7 36.8 23.9 60 6.1 SE 9 15 5 8 1011.6 1011.5 0.0
16/11:00am 32.1 36.4 23.6 60 5.9 NNW 7 13 4 7 1012.1 1012.0 0.0
16/10:30am 32.1 36.7 24.2 63 5.5 NW 7 11 4 6 1012.2 1012.1 0.0
16/10:00am 31.4 36.1 24.0 65 5.2 WNW 6 13 3 7 1012.5 1012.4 0.0
16/09:30am 30.8 36.2 25.4 73 3.8 WSW 7 13 4 7 1012.7 1012.6 0.0
16/09:00am 30.6 35.9 25.9 76 3.3 N 9 13 5 7 1012.5 1012.4 6.4
16/08:30am 29.6 34.7 25.6 79 2.8 NNW 9 15 5 8 1012.6 1012.5 6.2
16/08:00am 29.0 35.6 26.4 86 1.9 ESE 4 7 2 4 1012.5 1012.4 6.2
16/07:30am 27.5 33.9 26.1 92 1.0 E 4 6 2 3 1012.3 1012.2 6.2
16/07:00am 26.0 32.4 25.5 97 0.4 E 2 7 1 4 1012.1 1012.0 6.2
16/06:30am 25.8 32.4 25.3 97 0.3 CALM 0 0 0 0 1012.0 1011.9 6.2
16/06:00am 25.5 32.0 25.0 97 0.3 CALM 0 2 0 1 1011.5 1011.4 6.2
16/05:30am 25.6 32.1 25.1 97 0.3 CALM 0 0 0 0 1011.4 1011.3 6.2
16/05:00am 25.6 31.4 25.1 97 0.3 ESE 4 7 2 4 1011.2 1011.1 6.2
16/04:30am 25.7 31.1 25.2 97 0.3 E 6 6 3 3 1011.0 1010.9 6.2
16/04:00am 25.4 30.5 24.7 96 0.5 E 6 7 3 4 1010.8 1010.7 6.2
16/03:30am 25.6 31.2 24.9 96 0.5 E 4 7 2 4 1010.8 1010.7 6.2
16/03:00am 25.4 30.3 24.7 96 0.5 ESE 7 9 4 5 1010.9 1010.8 6.2
16/02:30am 25.4 31.3 24.7 96 0.5 ESE 2 9 1 5 1010.8 1010.7 6.2
16/02:00am 25.7 31.0 25.2 97 0.3 ESE 7 9 4 5 1011.0 1010.9 6.2
16/01:30am 25.7 31.0 25.0 96 0.5 E 6 7 3 4 1010.9 1010.8 6.2
16/01:00am 26.0 32.1 25.1 95 0.6 ENE 2 7 1 4 1011.0 1010.9 6.2
16/12:30am 26.1 32.6 25.1 94 0.7 CALM 0 0 0 0 1011.3 1011.2 6.2
16/12:00am 26.3 31.9 25.4 95 0.6 E 6 7 3 4 1011.7 1011.6 6.2
 
Date/Time
CST
Temp
°C
App
Temp
°C
Dew
Point
°C
Rel
Hum
%
Delta-T
°C
Wind Press
QNH
hPa
Press
MSL
hPa
Rain since
9am
mm
Dir  Spd
km/h
Gust
km/h
Spd
kts
Gust
kts
15/11:30pm 26.3 31.8 25.3 94 0.7 E 6 7 3 4 1012.2 1012.1 6.2
15/11:00pm 26.9 33.8 25.7 93 0.8 CALM 0 0 0 0 1012.3 1012.2 6.2
15/10:30pm 27.0 32.4 25.4 91 1.1 E 7 9 4 5 1012.2 1012.1 6.2
15/10:00pm 27.8 34.0 25.8 89 1.4 NNE 4 7 2 4 1012.0 1011.9 6.2
15/09:30pm 27.4 34.0 25.8 91 1.1 E 2 7 1 4 1011.8 1011.7 6.2
15/09:00pm 27.6 33.4 26.0 91 1.1 ESE 7 9 4 5 1011.5 1011.4 6.2
15/08:30pm 27.6 33.3 25.6 89 1.4 ESE 6 9 3 5 1011.3 1011.2 6.2
15/08:00pm 27.9 33.8 25.9 89 1.4 ESE 6 6 3 3 1011.0 1010.9 6.2
15/07:30pm 28.4 34.3 26.2 88 1.6 E 7 9 4 5 1010.6 1010.5 6.2
15/07:00pm 29.0 35.3 25.4 81 2.5 W 2 6 1 3 1009.8 1009.7 6.2
15/06:30pm 30.8 37.3 25.6 74 3.7 W 2 6 1 3 1009.1 1009.0 6.2
15/06:00pm 31.6 36.9 25.0 68 4.7 NNW 6 7 3 4 1008.7 1008.6 6.2
15/05:30pm 30.6 35.9 24.3 69 4.4 NNE 4 7 2 4 1008.5 1008.4 6.2
15/05:00pm 28.8 34.5 25.6 83 2.3 SSE 6 7 3 4 1008.7 1008.6 6.2
15/04:30pm 27.5 32.4 24.6 84 2.0 E 7 9 4 5 1008.8 1008.7 6.2
15/04:00pm 27.2 33.1 24.7 86 1.7 NW 2 6 1 3 1009.0 1008.9 6.2
15/03:30pm 26.3 30.2 23.0 82 2.2 ENE 7 13 4 7 1009.2 1009.1 6.2
15/03:00pm 25.3 29.0 23.2 88 1.4 ESE 9 15 5 8 1009.4 1009.3 6.2
15/02:54pm 24.6 27.8 22.3 87 1.5 SE 9 15 5 8 1009.9 1009.8 6.2
15/02:30pm 24.7 25.2 21.2 81 2.3 SE 20 30 11 16 1011.1 1011.0 3.4
15/02:29pm 24.9 25.3 21.0 79 2.6 SE 20 30 11 16 1011.1 1011.0 3.2
15/02:19pm 28.8 30.6 21.8 66 4.7 ENE 15 26 8 14 1010.8 1010.7 1.2
15/02:00pm 34.2 38.8 24.7 57 6.7 SW 9 17 5 9 1009.8 1009.7 0.0
15/01:30pm 33.7 37.2 24.8 59 6.3 W 15 28 8 15 1010.0 1009.9 0.0
15/01:00pm 34.2 37.4 25.0 58 6.5 WNW 17 22 9 12 1010.5 1010.4 0.0
15/12:30pm 33.3 36.2 24.5 60 6.2 WNW 17 26 9 14 1011.0 1010.9 0.0
15/12:00pm 34.3 37.8 25.4 60 6.3 WNW 17 24 9 13 1011.2 1011.1 0.0
15/11:30am 33.6 37.6 25.0 60 6.1 NW 13 19 7 10 1011.6 1011.5 0.0
15/11:00am 33.6 37.5 24.8 60 6.2 NW 13 17 7 9 1011.6 1011.5 0.0
15/10:30am 33.5 38.3 24.1 58 6.6 SE 6 13 3 7 1012.0 1011.9 0.0
15/10:00am 32.7 37.6 24.7 62 5.6 N 7 11 4 6 1012.3 1012.2 0.0
15/09:30am 32.2 38.8 25.8 69 4.6 S 2 9 1 5 1012.3 1012.2 0.0
15/09:00am 30.8 36.6 25.8 74 3.6 ESE 6 7 3 4 1012.2 1012.1 0.0
15/08:30am 29.6 35.1 26.2 82 2.4 ESE 9 13 5 7 1011.8 1011.7 0.0
15/08:00am 28.8 34.9 26.2 86 1.8 SE 6 9 3 5 1012.0 1011.9 0.0
15/07:30am 28.5 34.3 26.1 87 1.7 ESE 7 11 4 6 1011.9 1011.8 0.0
15/07:00am 27.7 33.3 25.7 89 1.4 SSE 7 7 4 4 1011.5 1011.4 0.0
15/06:30am 27.1 33.1 25.5 91 1.1 SE 4 9 2 5 1010.8 1010.7 0.0
15/06:00am 27.3 32.8 25.3 89 1.4 ESE 6 9 3 5 1010.3 1010.2 0.0
15/05:30am 26.7 32.3 25.5 93 0.8 ESE 6 9 3 5 1009.7 1009.6 0.0
15/05:00am 26.5 33.1 25.3 93 0.8 CALM 0 0 0 0 1009.4 1009.3 0.0
15/04:30am 27.2 33.7 25.6 91 1.1 NNE 2 6 1 3 1009.2 1009.1 0.0
15/04:00am 27.6 33.2 25.4 88 1.5 NNE 6 7 3 4 1009.0 1008.9 0.0
15/03:30am 27.8 33.6 26.0 90 1.3 NE 7 9 4 5 1008.9 1008.8 0.0
15/03:00am 27.5 32.9 25.5 89 1.4 NE 7 9 4 5 1009.0 1008.9 0.0
15/02:30am 28.0 34.1 26.2 90 1.3 N 6 9 3 5 1009.3 1009.2 0.0
15/02:00am 27.3 33.1 25.7 91 1.1 ENE 6 7 3 4 1009.7 1009.6 0.0
15/01:30am 27.5 33.1 25.5 89 1.4 NE 6 7 3 4 1010.1 1010.0 0.0
15/01:00am 28.5 34.7 26.3 88 1.6 N 6 7 3 4 1010.2 1010.1 0.0
15/12:30am 28.0 33.6 25.4 86 1.8 NNE 6 6 3 3 1010.1 1010.0 0.0
15/12:00am 29.1 35.6 26.3 85 2.0 N 4 7 2 4 1010.2 1010.1 0.0
 
Date/Time
CST
Temp
°C
App
Temp
°C
Dew
Point
°C
Rel
Hum
%
Delta-T
°C
Wind Press
QNH
hPa
Press
MSL
hPa
Rain since
9am
mm
Dir  Spd
km/h
Gust
km/h
Spd
kts
Gust
kts
14/11:30pm 28.0 33.7 25.6 87 1.7 ENE 6 7 3 4 1010.3 1010.2 0.0

Other Formats:

Comma delimited format used in spreadsheet applications
http://www.bom.gov.au/fwo/IDD60801/IDD60801.94153.axf

JavaScript Object Notation format (JSON) in row-major order
http://www.bom.gov.au/fwo/IDD60801/IDD60801.94153.json